createdAt,value
2022-08-17T00:02:26.793Z,5.63
2022-08-17T00:04:55.366Z,5.28
2022-08-17T00:07:23.105Z,6.00
2022-08-17T00:09:50.426Z,5.22
2022-08-17T00:12:43.491Z,5.25
2022-08-17T00:15:10.565Z,5.28
2022-08-17T00:17:38.229Z,5.43
2022-08-17T00:20:06.328Z,5.60
2022-08-17T00:22:36.418Z,5.38
2022-08-17T00:25:12.161Z,5.78
2022-08-17T00:27:39.572Z,5.45
2022-08-17T00:30:10.492Z,6.03
2022-08-17T00:33:23.256Z,5.22
2022-08-17T00:35:34.562Z,4.72
2022-08-17T00:38:01.844Z,4.00
2022-08-17T00:40:40.753Z,4.55
2022-08-17T00:43:22.077Z,4.97
2022-08-17T00:45:49.843Z,4.93
2022-08-17T00:48:29.403Z,3.75
2022-08-17T00:51:18.237Z,4.43
2022-08-17T00:53:54.418Z,4.32
2022-08-17T00:56:28.361Z,3.65
2022-08-17T00:58:55.886Z,3.70
2022-08-17T01:01:23.401Z,3.78
2022-08-17T01:03:55.599Z,4.18
2022-08-17T01:06:28.291Z,4.15
2022-08-17T01:08:58.036Z,4.22
2022-08-17T01:11:26.930Z,4.35
2022-08-17T01:13:54.206Z,4.55
2022-08-17T01:16:30.712Z,4.00
2022-08-17T01:19:02.077Z,4.40
2022-08-17T01:21:45.145Z,4.85
2022-08-17T01:24:12.491Z,4.05
2022-08-17T01:26:41.179Z,4.78
2022-08-17T01:29:09.347Z,4.93
2022-08-17T01:31:41.763Z,4.05
2022-08-17T01:34:11.061Z,3.90
2022-08-17T01:36:41.237Z,3.90
2022-08-17T01:39:16.851Z,3.47
2022-08-17T01:41:46.043Z,4.13
2022-08-17T01:44:16.490Z,4.47
2022-08-17T01:46:43.755Z,3.95
2022-08-17T01:49:11.833Z,4.05
2022-08-17T01:51:39.643Z,3.80
2022-08-17T01:54:11.203Z,3.60
2022-08-17T01:56:41.787Z,2.97
2022-08-17T01:59:10.826Z,4.05
2022-08-17T02:01:38.694Z,4.20
2022-08-17T02:04:07.318Z,4.03
2022-08-17T02:06:47.051Z,4.07
2022-08-17T02:09:23.249Z,3.30
2022-08-17T02:11:54.882Z,3.67
2022-08-17T02:14:24.927Z,3.42
2022-08-17T02:16:53.715Z,3.85
2022-08-17T02:19:21.844Z,3.47
2022-08-17T02:21:51.537Z,3.72
2022-08-17T02:25:00.159Z,4.20
2022-08-17T02:27:16.640Z,3.70
2022-08-17T02:29:43.892Z,3.75
2022-08-17T02:32:27.910Z,3.85
2022-08-17T02:35:00.100Z,3.75
2022-08-17T02:37:28.763Z,3.50
2022-08-17T02:39:59.943Z,3.28
2022-08-17T02:42:39.225Z,3.83
2022-08-17T02:45:11.114Z,3.83
2022-08-17T02:47:40.059Z,3.70
2022-08-17T02:50:09.772Z,4.47
2022-08-17T02:53:01.654Z,3.50
2022-08-17T02:55:33.487Z,3.60
2022-08-17T02:58:01.594Z,4.00
2022-08-17T03:00:36.262Z,3.38
2022-08-17T03:03:05.540Z,3.58
2022-08-17T03:05:36.320Z,3.10
2022-08-17T03:08:05.847Z,3.85
2022-08-17T03:10:33.843Z,3.25
2022-08-17T03:13:01.568Z,3.78
2022-08-17T03:15:31.712Z,3.30
2022-08-17T03:17:59.948Z,3.70
2022-08-17T03:20:29.545Z,3.58
2022-08-17T03:23:01.859Z,3.55
2022-08-17T03:25:37.445Z,3.28
2022-08-17T03:28:07.026Z,3.53
2022-08-17T03:30:34.642Z,3.40
2022-08-17T03:33:04.378Z,3.63
2022-08-17T03:35:34.127Z,3.78
2022-08-17T03:38:01.974Z,3.20
2022-08-17T03:40:55.403Z,3.33
2022-08-17T03:43:19.774Z,3.75
2022-08-17T03:46:05.893Z,3.90
2022-08-17T03:49:09.966Z,3.58
2022-08-17T03:51:55.551Z,3.30
2022-08-17T03:54:41.410Z,3.50
2022-08-17T03:57:11.016Z,3.03
2022-08-17T03:59:38.764Z,3.28
2022-08-17T04:02:12.963Z,3.50
2022-08-17T04:04:40.631Z,3.22
2022-08-17T04:07:08.305Z,3.45
2022-08-17T04:09:36.492Z,3.85
2022-08-17T04:12:05.181Z,3.15
2022-08-17T04:14:37.856Z,3.75
2022-08-17T04:17:20.250Z,3.28
2022-08-17T04:19:47.463Z,3.88
2022-08-17T04:22:30.424Z,3.15
2022-08-17T04:25:03.067Z,3.10
2022-08-17T04:27:30.286Z,3.00
2022-08-17T04:29:58.509Z,3.80
2022-08-17T04:32:59.216Z,2.90
2022-08-17T04:35:17.292Z,3.50
2022-08-17T04:37:45.395Z,3.65
2022-08-17T04:40:31.102Z,3.08
2022-08-17T04:43:10.570Z,2.80
2022-08-17T04:46:11.696Z,3.30
2022-08-17T04:48:45.677Z,2.90
2022-08-17T04:51:17.599Z,3.03
2022-08-17T04:53:51.097Z,3.95
2022-08-17T04:56:22.841Z,2.97
2022-08-17T04:58:52.964Z,3.25
2022-08-17T05:01:23.946Z,3.45
2022-08-17T05:03:56.962Z,3.60
2022-08-17T05:06:24.831Z,3.47
2022-08-17T05:08:52.663Z,3.60
2022-08-17T05:11:20.231Z,3.67
2022-08-17T05:13:50.183Z,4.10
2022-08-17T05:16:18.704Z,3.88
2022-08-17T05:18:46.424Z,3.20
2022-08-17T05:21:14.013Z,3.15
2022-08-17T05:23:43.521Z,3.03
2022-08-17T05:26:22.011Z,3.10
2022-08-17T05:29:02.455Z,3.30
2022-08-17T05:31:30.800Z,3.05
2022-08-17T05:33:58.659Z,3.70
2022-08-17T05:36:38.116Z,3.22
2022-08-17T05:39:15.627Z,2.88
2022-08-17T05:41:46.902Z,3.33
2022-08-17T05:44:14.552Z,3.33
2022-08-17T05:46:45.558Z,2.85
2022-08-17T05:49:16.007Z,3.08
2022-08-17T05:51:58.289Z,4.45
2022-08-17T05:54:40.552Z,4.38
2022-08-17T05:57:35.950Z,5.22
2022-08-17T06:00:12.722Z,5.97
2022-08-17T06:03:09.895Z,6.47
2022-08-17T06:05:46.347Z,3.92
2022-08-17T06:08:21.810Z,3.80
2022-08-17T06:10:57.990Z,3.78
2022-08-17T06:13:59.569Z,3.70
2022-08-17T06:16:35.438Z,3.45
2022-08-17T06:19:30.891Z,3.33
2022-08-17T06:21:59.781Z,3.50
2022-08-17T06:24:34.787Z,3.67
2022-08-17T06:27:31.120Z,3.15
2022-08-17T06:30:11.590Z,3.40
2022-08-17T06:32:42.466Z,3.42
2022-08-17T06:35:13.875Z,3.28
2022-08-17T06:38:09.364Z,3.90
2022-08-17T06:41:00.206Z,3.42
2022-08-17T06:43:53.476Z,3.60
2022-08-17T06:46:32.189Z,3.63
2022-08-17T06:49:08.225Z,3.30
2022-08-17T06:51:43.291Z,4.07
2022-08-17T06:54:25.331Z,4.63
2022-08-17T06:57:05.133Z,4.95
2022-08-17T06:59:54.587Z,4.03
2022-08-17T07:02:52.792Z,4.65
2022-08-17T07:05:24.954Z,4.20
2022-08-17T07:08:04.632Z,3.65
2022-08-17T07:10:38.991Z,4.28
2022-08-17T07:13:51.093Z,4.18
2022-08-17T07:16:25.842Z,3.65
2022-08-17T07:18:55.845Z,4.10
2022-08-17T07:21:54.950Z,4.18
2022-08-17T07:24:45.034Z,4.72
2022-08-17T07:27:15.552Z,4.43
2022-08-17T07:29:49.398Z,5.00
2022-08-17T07:32:25.632Z,4.13
2022-08-17T07:35:11.714Z,5.13
2022-08-17T07:37:46.320Z,4.97
2022-08-17T07:40:30.922Z,4.47
2022-08-17T07:43:23.259Z,4.47
2022-08-17T07:46:23.667Z,4.45
2022-08-17T07:48:54.978Z,4.10
2022-08-17T07:51:29.257Z,4.55
2022-08-17T07:54:13.552Z,5.25
2022-08-17T07:56:46.416Z,5.55
2022-08-17T07:59:23.565Z,5.93
2022-08-17T08:01:58.036Z,5.38
2022-08-17T08:05:00.236Z,5.60
2022-08-17T08:07:21.594Z,5.25
2022-08-17T08:10:24.938Z,6.03
2022-08-17T08:13:10.766Z,6.63
2022-08-17T08:15:53.475Z,6.63
2022-08-17T08:18:47.610Z,6.13
2022-08-17T08:21:46.657Z,6.28
2022-08-17T08:24:19.599Z,7.75
2022-08-17T08:27:07.841Z,7.00
2022-08-17T08:29:42.679Z,6.15
2022-08-17T08:32:36.815Z,6.88
2022-08-17T08:35:09.719Z,7.07
2022-08-17T08:37:44.549Z,7.45
2022-08-17T08:40:39.838Z,7.15
2022-08-17T08:43:28.739Z,8.32
2022-08-17T08:46:25.682Z,6.95
2022-08-17T08:49:12.461Z,7.43
2022-08-17T08:51:59.381Z,7.15
2022-08-17T08:55:01.906Z,7.50
2022-08-17T08:57:38.074Z,7.25
2022-08-17T09:00:21.362Z,7.72
2022-08-17T09:02:57.544Z,8.05
2022-08-17T09:05:26.016Z,8.50
2022-08-17T09:08:05.222Z,8.57
2022-08-17T09:11:02.302Z,8.73
2022-08-17T09:13:54.577Z,7.65
2022-08-17T09:16:37.356Z,9.18
2022-08-17T09:19:30.322Z,8.45
2022-08-17T09:22:11.966Z,8.25
2022-08-17T09:24:46.470Z,8.75
2022-08-17T09:27:18.407Z,7.43
2022-08-17T09:29:57.744Z,7.90
2022-08-17T09:32:36.415Z,8.57
2022-08-17T09:35:17.392Z,8.10
2022-08-17T09:37:47.754Z,8.68
2022-08-17T09:40:39.434Z,10.30
2022-08-17T09:43:37.433Z,8.82
2022-08-17T09:46:09.566Z,9.38
2022-08-17T09:49:03.190Z,8.55
2022-08-17T09:51:44.981Z,8.93
2022-08-17T09:54:41.148Z,8.32
2022-08-17T09:57:32.179Z,8.80
2022-08-17T10:00:15.691Z,9.07
2022-08-17T10:03:00.447Z,9.57
2022-08-17T10:05:30.648Z,8.48
2022-08-17T10:08:09.164Z,9.10
2022-08-17T10:11:08.132Z,8.98
2022-08-17T10:14:01.168Z,9.27
2022-08-17T10:16:52.051Z,8.38
2022-08-17T10:19:35.222Z,8.90
2022-08-17T10:22:34.788Z,9.25
2022-08-17T10:25:26.108Z,10.10
2022-08-17T10:28:07.419Z,8.93
2022-08-17T10:30:49.143Z,9.60
2022-08-17T10:33:21.373Z,8.75
2022-08-17T10:36:10.166Z,8.60
2022-08-17T10:38:59.954Z,8.18
2022-08-17T10:41:45.207Z,9.45
2022-08-17T10:44:40.880Z,8.40
2022-08-17T10:47:18.293Z,9.07
2022-08-17T10:49:54.486Z,8.98
2022-08-17T10:52:28.004Z,9.32
2022-08-17T10:54:58.026Z,9.23
2022-08-17T10:57:39.936Z,9.75
2022-08-17T11:00:24.195Z,7.55
2022-08-17T11:02:57.342Z,8.10
2022-08-17T11:06:03.692Z,8.82
2022-08-17T11:09:03.002Z,9.85
2022-08-17T11:11:50.867Z,9.55
2022-08-17T11:14:36.706Z,9.80
2022-08-17T11:17:13.034Z,10.50
2022-08-17T11:19:59.769Z,9.57
2022-08-17T11:22:48.186Z,11.32
2022-08-17T11:25:19.260Z,11.27
2022-08-17T11:27:53.554Z,10.20
2022-08-17T11:30:50.790Z,10.30
2022-08-17T11:33:30.446Z,10.70
2022-08-17T11:36:37.245Z,13.07
2022-08-17T11:39:13.002Z,11.27
2022-08-17T11:41:53.552Z,10.10
2022-08-17T11:44:45.547Z,11.02
2022-08-17T11:48:23.916Z,13.80
2022-08-17T11:51:25.155Z,10.32
2022-08-17T11:54:21.394Z,11.23
2022-08-17T11:56:44.353Z,11.35
2022-08-17T11:59:32.585Z,10.88
2022-08-17T12:02:02.847Z,10.52
2022-08-17T12:04:33.275Z,11.57
2022-08-17T12:07:12.931Z,11.23
2022-08-17T12:09:45.596Z,10.63
2022-08-17T12:12:35.820Z,13.52
2022-08-17T12:15:11.895Z,11.15
2022-08-17T12:17:42.750Z,13.98
2022-08-17T12:20:23.978Z,15.82
2022-08-17T12:23:21.270Z,14.60
2022-08-17T12:25:59.282Z,12.18
2022-08-17T12:28:31.464Z,12.85
2022-08-17T12:31:07.584Z,13.88
2022-08-17T12:33:36.955Z,11.50
2022-08-17T12:36:10.484Z,11.52
2022-08-17T12:38:38.342Z,9.75
2022-08-17T12:41:26.457Z,11.20
2022-08-17T12:44:24.643Z,10.68
2022-08-17T12:47:19.415Z,11.30
2022-08-17T12:49:51.678Z,9.43
2022-08-17T12:52:28.971Z,11.93
2022-08-17T12:55:01.905Z,12.52
2022-08-17T12:57:45.923Z,13.13
2022-08-17T13:00:29.088Z,10.95
2022-08-17T13:03:16.976Z,10.05
2022-08-17T13:06:03.289Z,10.50
2022-08-17T13:08:43.060Z,10.63
2022-08-17T13:11:24.462Z,10.32
2022-08-17T13:13:55.942Z,10.73
2022-08-17T13:16:33.365Z,11.32
2022-08-17T13:19:12.771Z,9.30
2022-08-17T13:21:46.093Z,11.35
2022-08-17T13:24:17.040Z,9.50
2022-08-17T13:26:50.133Z,8.93
2022-08-17T13:29:32.105Z,8.25
2022-08-17T13:32:11.615Z,9.82
2022-08-17T13:35:14.910Z,7.63
2022-08-17T13:37:36.537Z,8.88
2022-08-17T13:40:09.633Z,9.45
2022-08-17T13:42:50.318Z,9.65
2022-08-17T13:45:35.584Z,10.48
2022-08-17T13:48:14.032Z,9.23
2022-08-17T13:50:49.660Z,7.95
2022-08-17T13:53:27.148Z,8.15
2022-08-17T13:56:36.956Z,7.50
2022-08-17T13:59:52.910Z,9.50
2022-08-17T14:02:15.771Z,8.60
2022-08-17T14:04:44.561Z,8.30
2022-08-17T14:07:12.517Z,9.13
2022-08-17T14:09:57.368Z,8.05
2022-08-17T14:12:27.257Z,10.45
2022-08-17T14:14:56.356Z,10.20
2022-08-17T14:17:25.002Z,11.07
2022-08-17T14:19:53.339Z,11.02
2022-08-17T14:22:30.624Z,15.98
2022-08-17T14:24:59.756Z,13.63
2022-08-17T14:27:28.059Z,13.93
2022-08-17T14:29:56.317Z,14.30
2022-08-17T14:32:32.920Z,15.45
2022-08-17T14:35:04.475Z,13.82
2022-08-17T14:37:32.415Z,13.07
2022-08-17T14:40:02.528Z,13.13
2022-08-17T14:42:33.206Z,11.20
2022-08-17T14:45:06.117Z,12.05
2022-08-17T14:47:47.892Z,12.45
2022-08-17T14:50:19.675Z,11.20
2022-08-17T14:52:47.947Z,11.30
2022-08-17T14:55:21.055Z,11.02
2022-08-17T14:57:48.423Z,12.23
2022-08-17T15:00:16.644Z,11.55
2022-08-17T15:02:56.092Z,11.80
2022-08-17T15:05:27.142Z,10.80
2022-08-17T15:07:55.276Z,12.02
2022-08-17T15:10:23.400Z,12.25
2022-08-17T15:12:52.154Z,11.43
2022-08-17T15:15:19.935Z,11.32
2022-08-17T15:17:47.224Z,11.75
2022-08-17T15:20:17.296Z,10.15
2022-08-17T15:22:46.729Z,13.02
2022-08-17T15:25:14.630Z,12.80
2022-08-17T15:27:42.425Z,11.82
2022-08-17T15:30:10.485Z,11.35
2022-08-17T15:32:40.520Z,12.90
2022-08-17T15:35:11.716Z,11.90
2022-08-17T15:37:41.827Z,10.73
2022-08-17T15:40:10.292Z,12.55
2022-08-17T15:42:40.901Z,12.68
2022-08-17T15:45:12.109Z,13.20
2022-08-17T15:47:40.032Z,11.60
2022-08-17T15:50:08.758Z,11.70
2022-08-17T15:52:40.045Z,11.07
2022-08-17T15:55:11.410Z,13.05
2022-08-17T15:57:39.040Z,9.75
2022-08-17T16:00:08.524Z,11.75
2022-08-17T16:03:45.757Z,9.73
2022-08-17T16:05:28.574Z,9.02
2022-08-17T16:07:59.723Z,8.57
2022-08-17T16:10:35.151Z,8.82
2022-08-17T16:13:04.379Z,10.40
2022-08-17T16:15:32.161Z,15.00
2022-08-17T16:17:59.600Z,9.75
2022-08-17T16:20:26.988Z,10.85
2022-08-17T16:22:55.162Z,9.73
2022-08-17T16:25:47.170Z,9.63
2022-08-17T16:28:17.971Z,10.13
2022-08-17T16:30:45.801Z,8.63
2022-08-17T16:33:13.608Z,11.20
2022-08-17T16:35:42.041Z,9.05
2022-08-17T16:38:09.543Z,11.23
2022-08-17T16:40:38.704Z,10.18
2022-08-17T16:43:10.553Z,9.43
2022-08-17T16:45:40.301Z,10.80
2022-08-17T16:48:09.562Z,9.70
2022-08-17T16:50:37.144Z,10.90
2022-08-17T16:53:17.829Z,10.55
2022-08-17T16:55:47.195Z,9.65
2022-08-17T16:58:15.505Z,9.38
2022-08-17T17:00:45.107Z,8.65
2022-08-17T17:03:19.252Z,10.40
2022-08-17T17:06:24.844Z,18.73
2022-08-17T17:08:59.760Z,9.98
2022-08-17T17:11:33.553Z,10.73
2022-08-17T17:14:05.823Z,9.85
2022-08-17T17:16:52.110Z,10.15
2022-08-17T17:19:35.140Z,9.57
2022-08-17T17:22:16.330Z,9.23
2022-08-17T17:25:05.199Z,9.88
2022-08-17T17:27:50.545Z,9.93
2022-08-17T17:30:44.305Z,9.88
2022-08-17T17:33:17.698Z,8.77
2022-08-17T17:35:50.019Z,8.10
2022-08-17T17:38:29.257Z,8.05
2022-08-17T17:41:10.552Z,8.13
2022-08-17T17:43:40.164Z,9.85
2022-08-17T17:46:31.401Z,8.60
2022-08-17T17:49:00.677Z,10.07
2022-08-17T17:52:06.860Z,7.10
2022-08-17T17:54:42.704Z,8.85
2022-08-17T17:57:12.787Z,9.27
2022-08-17T18:00:11.983Z,7.32
2022-08-17T18:02:52.641Z,7.57
2022-08-17T18:05:45.004Z,8.63
2022-08-17T18:08:32.388Z,8.75
2022-08-17T18:11:23.998Z,7.47
2022-08-17T18:14:21.045Z,8.43
2022-08-17T18:16:54.917Z,8.32
2022-08-17T18:19:25.303Z,9.70
2022-08-17T18:22:04.001Z,8.13
2022-08-17T18:24:37.836Z,9.07
2022-08-17T18:27:21.224Z,9.43
2022-08-17T18:29:50.285Z,7.88
2022-08-17T18:32:28.263Z,8.35
2022-08-17T18:35:18.071Z,8.60
2022-08-17T18:37:47.199Z,9.68
2022-08-17T18:40:20.513Z,8.70
2022-08-17T18:42:50.463Z,9.05
2022-08-17T18:45:42.080Z,8.40
2022-08-17T18:48:28.726Z,8.57
2022-08-17T18:51:21.470Z,8.93
2022-08-17T18:54:25.845Z,8.80
2022-08-17T18:56:59.095Z,8.52
2022-08-17T18:59:42.350Z,8.10
2022-08-17T19:02:33.653Z,8.45
2022-08-17T19:05:30.814Z,8.00
2022-08-17T19:08:28.319Z,8.80
2022-08-17T19:11:26.459Z,21.95
2022-08-17T19:14:03.740Z,8.90
2022-08-17T19:16:59.115Z,7.88
2022-08-17T19:19:53.991Z,7.85
2022-08-17T19:22:49.689Z,7.68
2022-08-17T19:25:28.932Z,7.50
2022-08-17T19:28:03.738Z,8.65
2022-08-17T19:30:31.355Z,8.38
2022-08-17T19:33:00.888Z,7.72
2022-08-17T19:35:53.132Z,7.45
2022-08-17T19:38:34.921Z,6.90
2022-08-17T19:41:14.570Z,7.55
2022-08-17T19:44:08.676Z,7.03
2022-08-17T19:47:00.805Z,7.63
2022-08-17T19:49:40.976Z,7.30
2022-08-17T19:52:08.733Z,7.60
2022-08-17T19:54:52.389Z,7.85
2022-08-17T19:57:43.096Z,7.70
2022-08-17T20:00:18.233Z,7.50
2022-08-17T20:03:05.854Z,8.15
2022-08-17T20:06:10.991Z,7.35
2022-08-17T20:08:38.762Z,7.50
2022-08-17T20:11:15.885Z,6.75
2022-08-17T20:13:51.004Z,7.78
2022-08-17T20:16:20.056Z,7.72
2022-08-17T20:19:22.191Z,7.50
2022-08-17T20:22:06.036Z,7.38
2022-08-17T20:24:53.034Z,7.10
2022-08-17T20:27:55.396Z,6.55
2022-08-17T20:30:40.027Z,6.78
2022-08-17T20:33:23.213Z,7.20
2022-08-17T20:36:22.685Z,8.02
2022-08-17T20:38:56.635Z,7.15
2022-08-17T20:41:29.969Z,8.13
2022-08-17T20:43:57.168Z,7.65
2022-08-17T20:46:33.489Z,6.93
2022-08-17T20:49:19.935Z,7.70
2022-08-17T20:52:01.735Z,8.18
2022-08-17T20:55:08.172Z,7.35
2022-08-17T20:57:35.440Z,8.52
2022-08-17T21:00:31.943Z,8.95
2022-08-17T21:03:22.535Z,7.07
2022-08-17T21:06:00.290Z,8.07
2022-08-17T21:08:32.497Z,7.18
2022-08-17T21:11:01.579Z,8.75
2022-08-17T21:13:41.144Z,9.23
2022-08-17T21:16:53.421Z,7.35
2022-08-17T21:20:00.565Z,8.45
2022-08-17T21:22:34.604Z,9.38
2022-08-17T21:25:32.350Z,8.40
2022-08-17T21:28:08.207Z,9.23
2022-08-17T21:30:37.898Z,7.93
2022-08-17T21:33:28.166Z,9.75
2022-08-17T21:35:58.771Z,9.00
2022-08-17T21:38:57.397Z,8.02
2022-08-17T21:41:35.535Z,10.73
2022-08-17T21:44:31.414Z,10.50
2022-08-17T21:47:19.304Z,11.75
2022-08-17T21:49:46.771Z,12.13
2022-08-17T21:52:17.562Z,11.70
2022-08-17T21:55:03.193Z,10.88
2022-08-17T21:57:32.942Z,11.38
2022-08-17T22:00:02.080Z,11.98
2022-08-17T22:02:35.269Z,11.63
2022-08-17T22:05:07.789Z,10.35
2022-08-17T22:07:48.509Z,11.70
2022-08-17T22:10:34.242Z,11.57
2022-08-17T22:13:17.262Z,11.85
2022-08-17T22:16:15.541Z,12.25
2022-08-17T22:18:57.525Z,12.63
2022-08-17T22:21:25.277Z,12.07
2022-08-17T22:24:05.592Z,12.27
2022-08-17T22:26:59.962Z,12.10
2022-08-17T22:29:57.101Z,12.70
2022-08-17T22:32:37.767Z,11.85
2022-08-17T22:35:32.472Z,12.75
2022-08-17T22:38:32.206Z,15.25
2022-08-17T22:41:41.062Z,14.20
2022-08-17T22:44:23.234Z,16.40
2022-08-17T22:47:13.892Z,15.88
2022-08-17T22:49:53.140Z,14.45
2022-08-17T22:53:03.268Z,13.90
2022-08-17T22:55:50.686Z,14.18
2022-08-17T22:58:40.780Z,13.32
2022-08-17T23:01:31.339Z,16.75
2022-08-17T23:04:10.450Z,16.80
2022-08-17T23:06:40.006Z,15.25
2022-08-17T23:09:07.772Z,13.57
2022-08-17T23:11:58.416Z,15.90
2022-08-17T23:14:31.354Z,16.02
2022-08-17T23:17:01.690Z,14.15
2022-08-17T23:19:32.409Z,15.25
2022-08-17T23:22:04.191Z,16.33
2022-08-17T23:24:35.624Z,18.02
2022-08-17T23:27:07.622Z,19.13
2022-08-17T23:29:39.174Z,16.92
2022-08-17T23:32:07.215Z,18.05
2022-08-17T23:34:36.168Z,18.00
2022-08-17T23:37:04.366Z,16.25
2022-08-17T23:39:31.716Z,16.67
2022-08-17T23:42:03.262Z,16.48
2022-08-17T23:44:30.946Z,16.27
2022-08-17T23:46:58.198Z,15.27
2022-08-17T23:49:25.542Z,17.20
2022-08-17T23:51:56.531Z,19.60
2022-08-17T23:54:43.517Z,16.80
2022-08-17T23:57:16.525Z,15.80
2022-08-17T23:59:44.395Z,17.67
